createdAt,value
2016-12-16T00:00:30.303Z,1017.2
2016-12-16T00:01:30.281Z,1017.17
2016-12-16T00:02:30.265Z,1017.19
2016-12-16T00:03:30.239Z,1017.16
2016-12-16T00:04:30.218Z,1017.14
2016-12-16T00:05:30.203Z,1017.14
2016-12-16T00:06:30.178Z,1017.11
2016-12-16T00:07:30.156Z,1017.11
2016-12-16T00:08:30.134Z,1017.13
2016-12-16T00:09:30.113Z,1017.17
2016-12-16T00:10:30.091Z,1017.14
2016-12-16T00:11:30.072Z,1017.18
2016-12-16T00:12:30.049Z,1017.15
2016-12-16T00:13:30.029Z,1017.15
2016-12-16T00:14:30.007Z,1017.18
2016-12-16T00:15:29.987Z,1017.15
2016-12-16T00:16:29.967Z,1017.17
2016-12-16T00:17:29.947Z,1017.18
2016-12-16T00:18:29.924Z,1017.2
2016-12-16T00:19:30.105Z,1017.22
2016-12-16T00:20:29.881Z,1017.18
2016-12-16T00:21:29.859Z,1017.23
2016-12-16T00:22:29.838Z,1017.22
2016-12-16T00:23:29.816Z,1017.18
2016-12-16T00:24:29.796Z,1017.22
2016-12-16T00:25:29.776Z,1017.24
2016-12-16T00:26:29.755Z,1017.25
2016-12-16T00:27:29.735Z,1017.23
2016-12-16T00:28:29.713Z,1017.22
2016-12-16T00:29:29.690Z,1017.19
2016-12-16T00:30:29.669Z,1017.19
2016-12-16T00:31:29.648Z,1017.22
2016-12-16T00:32:29.628Z,1017.19
2016-12-16T00:33:29.605Z,1017.19
2016-12-16T00:34:29.585Z,1017.21
2016-12-16T00:35:29.564Z,1017.17
2016-12-16T00:36:29.543Z,1017.19
2016-12-16T00:37:29.521Z,1017.19
2016-12-16T00:38:29.500Z,1017.18
2016-12-16T00:39:29.480Z,1017.17
2016-12-16T00:40:29.457Z,1017.21
2016-12-16T00:41:29.436Z,1017.19
2016-12-16T00:42:29.417Z,1017.19
2016-12-16T00:43:29.394Z,1017.19
2016-12-16T00:44:29.377Z,1017.25
2016-12-16T00:45:29.353Z,1017.23
2016-12-16T00:46:29.330Z,1017.27
2016-12-16T00:47:29.311Z,1017.26
2016-12-16T00:48:29.287Z,1017.26
2016-12-16T00:49:29.266Z,1017.26
2016-12-16T00:50:29.246Z,1017.24
2016-12-16T00:51:29.224Z,1017.28
2016-12-16T00:52:29.204Z,1017.25
2016-12-16T00:53:29.182Z,1017.27
2016-12-16T00:54:29.161Z,1017.3
2016-12-16T00:55:29.139Z,1017.32
2016-12-16T00:56:29.121Z,1017.3
2016-12-16T00:57:29.096Z,1017.31
2016-12-16T00:58:29.075Z,1017.34
2016-12-16T00:59:29.055Z,1017.34
2016-12-16T01:00:29.032Z,1017.31
2016-12-16T01:01:29.011Z,1017.3
2016-12-16T01:02:28.993Z,1017.3
2016-12-16T01:03:28.970Z,1017.31
2016-12-16T01:04:28.948Z,1017.31
2016-12-16T01:05:28.929Z,1017.35
2016-12-16T01:06:28.909Z,1017.36
2016-12-16T01:07:28.887Z,1017.38
2016-12-16T01:08:28.870Z,1017.36
2016-12-16T01:09:28.844Z,1017.38
2016-12-16T01:10:28.821Z,1017.36
2016-12-16T01:11:28.800Z,1017.36
2016-12-16T01:12:28.778Z,1017.38
2016-12-16T01:13:28.756Z,1017.4
2016-12-16T01:14:28.735Z,1017.42
2016-12-16T01:15:28.714Z,1017.43
2016-12-16T01:16:28.693Z,1017.43
2016-12-16T01:17:28.671Z,1017.41
2016-12-16T01:18:28.650Z,1017.43
2016-12-16T01:19:28.629Z,1017.43
2016-12-16T01:20:28.607Z,1017.42
2016-12-16T01:21:28.585Z,1017.39
2016-12-16T01:22:28.565Z,1017.4
2016-12-16T01:23:28.542Z,1017.43
2016-12-16T01:24:28.522Z,1017.44
2016-12-16T01:25:28.500Z,1017.46
2016-12-16T01:26:28.478Z,1017.45
2016-12-16T01:27:28.460Z,1017.46
2016-12-16T01:28:28.434Z,1017.44
2016-12-16T01:29:28.419Z,1017.48
2016-12-16T01:30:28.391Z,1017.47
2016-12-16T01:31:28.370Z,1017.44
2016-12-16T01:32:28.350Z,1017.45
2016-12-16T01:33:28.328Z,1017.48
2016-12-16T01:34:28.307Z,1017.48
2016-12-16T01:35:28.283Z,1017.48
2016-12-16T01:36:28.262Z,1017.43
2016-12-16T01:37:28.242Z,1017.48
2016-12-16T01:38:28.221Z,1017.49
2016-12-16T01:39:28.201Z,1017.47
2016-12-16T01:40:28.177Z,1017.46
2016-12-16T01:41:28.155Z,1017.51
2016-12-16T01:42:28.135Z,1017.47
2016-12-16T01:43:28.112Z,1017.5
2016-12-16T01:44:28.090Z,1017.52
2016-12-16T01:45:28.071Z,1017.52
2016-12-16T01:46:28.045Z,1017.52
2016-12-16T01:47:28.027Z,1017.53
2016-12-16T01:48:28.006Z,1017.53
2016-12-16T01:49:27.983Z,1017.49
2016-12-16T01:50:27.959Z,1017.55
2016-12-16T01:51:27.940Z,1017.52
2016-12-16T01:52:27.919Z,1017.54
2016-12-16T01:53:27.899Z,1017.6
2016-12-16T01:54:27.875Z,1017.57
2016-12-16T01:55:27.853Z,1017.59
2016-12-16T01:56:27.830Z,1017.61
2016-12-16T01:57:27.809Z,1017.56
2016-12-16T01:58:27.787Z,1017.58
2016-12-16T01:59:27.769Z,1017.6
2016-12-16T02:00:27.745Z,1017.59
2016-12-16T02:01:27.723Z,1017.56
2016-12-16T02:02:27.720Z,1017.55
2016-12-16T02:03:27.682Z,1017.52
2016-12-16T02:04:27.657Z,1017.52
2016-12-16T02:05:27.634Z,1017.5
2016-12-16T02:06:27.612Z,1017.54
2016-12-16T02:07:27.592Z,1017.47
2016-12-16T02:08:27.571Z,1017.48
2016-12-16T02:09:27.547Z,1017.48
2016-12-16T02:10:27.527Z,1017.48
2016-12-16T02:11:27.506Z,1017.48
2016-12-16T02:12:27.483Z,1017.48
2016-12-16T02:13:27.461Z,1017.5
2016-12-16T02:14:27.438Z,1017.48
2016-12-16T02:15:27.420Z,1017.47
2016-12-16T02:16:27.395Z,1017.47
2016-12-16T02:17:27.374Z,1017.49
2016-12-16T02:18:27.351Z,1017.47
2016-12-16T02:19:27.533Z,1017.48
2016-12-16T02:20:27.308Z,1017.5
2016-12-16T02:21:27.286Z,1017.48
2016-12-16T02:22:27.267Z,1017.49
2016-12-16T02:23:27.244Z,1017.46
2016-12-16T02:24:27.221Z,1017.46
2016-12-16T02:25:27.202Z,1017.43
2016-12-16T02:26:27.180Z,1017.47
2016-12-16T02:27:27.157Z,1017.46
2016-12-16T02:28:27.135Z,1017.43
2016-12-16T02:29:27.113Z,1017.44
2016-12-16T02:30:27.097Z,1017.44
2016-12-16T02:31:27.073Z,1017.43
2016-12-16T02:32:27.047Z,1017.48
2016-12-16T02:33:27.026Z,1017.44
2016-12-16T02:34:27.005Z,1017.46
2016-12-16T02:35:26.983Z,1017.48
2016-12-16T02:36:26.961Z,1017.46
2016-12-16T02:37:26.940Z,1017.46
2016-12-16T02:38:26.918Z,1017.44
2016-12-16T02:39:26.894Z,1017.44
2016-12-16T02:40:26.874Z,1017.44
2016-12-16T02:41:26.851Z,1017.43
2016-12-16T02:42:26.828Z,1017.41
2016-12-16T02:43:26.809Z,1017.38
2016-12-16T02:44:26.785Z,1017.4
2016-12-16T02:45:26.764Z,1017.45
2016-12-16T02:46:26.744Z,1017.44
2016-12-16T02:47:26.721Z,1017.47
2016-12-16T02:48:26.697Z,1017.47
2016-12-16T02:49:26.675Z,1017.52
2016-12-16T02:50:26.655Z,1017.53
2016-12-16T02:51:26.633Z,1017.51
2016-12-16T02:52:26.611Z,1017.48
2016-12-16T02:53:26.589Z,1017.47
2016-12-16T02:54:26.568Z,1017.5
2016-12-16T02:55:26.545Z,1017.49
2016-12-16T02:56:26.524Z,1017.49
2016-12-16T02:57:26.501Z,1017.5
2016-12-16T02:58:26.479Z,1017.52
2016-12-16T02:59:26.456Z,1017.54
2016-12-16T03:00:26.436Z,1017.5
2016-12-16T03:01:26.414Z,1017.52
2016-12-16T03:02:26.394Z,1017.5
2016-12-16T03:03:26.370Z,1017.51
2016-12-16T03:04:26.349Z,1017.48
2016-12-16T03:05:26.326Z,1017.51
2016-12-16T03:06:26.305Z,1017.51
2016-12-16T03:07:26.281Z,1017.48
2016-12-16T03:08:26.260Z,1017.47
2016-12-16T03:09:26.239Z,1017.52
2016-12-16T03:10:26.217Z,1017.52
2016-12-16T03:11:26.196Z,1017.55
2016-12-16T03:12:26.173Z,1017.54
2016-12-16T03:13:26.151Z,1017.54
2016-12-16T03:14:26.128Z,1017.51
2016-12-16T03:15:26.105Z,1017.5
2016-12-16T03:16:26.085Z,1017.52
2016-12-16T03:17:26.063Z,1017.55
2016-12-16T03:18:26.040Z,1017.57
2016-12-16T03:19:26.019Z,1017.6
2016-12-16T03:20:25.998Z,1017.62
2016-12-16T03:21:25.974Z,1017.6
2016-12-16T03:22:25.953Z,1017.61
2016-12-16T03:23:25.931Z,1017.59
2016-12-16T03:24:25.909Z,1017.6
2016-12-16T03:25:25.887Z,1017.59
2016-12-16T03:26:25.866Z,1017.61
2016-12-16T03:27:25.845Z,1017.55
2016-12-16T03:28:25.822Z,1017.63
2016-12-16T03:29:25.799Z,1017.62
2016-12-16T03:30:25.778Z,1017.63
2016-12-16T03:31:25.756Z,1017.61
2016-12-16T03:32:25.735Z,1017.62
2016-12-16T03:33:25.710Z,1017.63
2016-12-16T03:34:25.693Z,1017.63
2016-12-16T03:35:25.669Z,1017.58
2016-12-16T03:36:25.646Z,1017.65
2016-12-16T03:37:25.624Z,1017.63
2016-12-16T03:38:25.604Z,1017.6
2016-12-16T03:39:25.612Z,1017.61
2016-12-16T03:40:25.560Z,1017.57
2016-12-16T03:41:25.535Z,1017.63
2016-12-16T03:42:25.513Z,1017.62
2016-12-16T03:43:25.491Z,1017.61
2016-12-16T03:44:25.470Z,1017.6
2016-12-16T03:45:25.448Z,1017.58
2016-12-16T03:46:25.426Z,1017.56
2016-12-16T03:47:25.403Z,1017.57
2016-12-16T03:48:25.381Z,1017.56
2016-12-16T03:49:25.364Z,1017.57
2016-12-16T03:50:25.339Z,1017.6
2016-12-16T03:51:25.317Z,1017.59
2016-12-16T03:52:25.298Z,1017.58
2016-12-16T03:53:25.274Z,1017.62
2016-12-16T03:54:25.250Z,1017.57
2016-12-16T03:55:25.231Z,1017.6
2016-12-16T03:56:25.210Z,1017.59
2016-12-16T03:57:25.188Z,1017.61
2016-12-16T03:58:25.164Z,1017.61
2016-12-16T03:59:25.144Z,1017.6
2016-12-16T04:00:25.121Z,1017.6
2016-12-16T04:01:25.096Z,1017.62
2016-12-16T04:02:25.072Z,1017.6
2016-12-16T04:03:25.052Z,1017.61
2016-12-16T04:04:25.030Z,1017.66
2016-12-16T04:05:25.006Z,1017.67
2016-12-16T04:06:24.986Z,1017.72
2016-12-16T04:07:24.963Z,1017.71
2016-12-16T04:08:24.941Z,1017.68
2016-12-16T04:09:24.918Z,1017.67
2016-12-16T04:10:24.897Z,1017.66
2016-12-16T04:11:24.876Z,1017.71
2016-12-16T04:12:24.853Z,1017.67
2016-12-16T04:13:24.831Z,1017.69
2016-12-16T04:14:24.811Z,1017.7
2016-12-16T04:15:24.786Z,1017.67
2016-12-16T04:16:24.765Z,1017.7
2016-12-16T04:17:24.743Z,1017.72
2016-12-16T04:18:24.721Z,1017.71
2016-12-16T04:19:24.900Z,1017.69
2016-12-16T04:20:24.676Z,1017.73
2016-12-16T04:21:24.655Z,1017.72
2016-12-16T04:22:24.633Z,1017.73
2016-12-16T04:23:24.610Z,1017.71
2016-12-16T04:24:24.587Z,1017.75
2016-12-16T04:25:24.567Z,1017.72
2016-12-16T04:26:24.545Z,1017.72
2016-12-16T04:27:24.522Z,1017.72
2016-12-16T04:28:24.499Z,1017.77
2016-12-16T04:29:24.479Z,1017.81
2016-12-16T04:30:24.456Z,1017.83
2016-12-16T04:31:24.433Z,1017.85
2016-12-16T04:32:24.409Z,1017.82
2016-12-16T04:33:24.398Z,1017.85
2016-12-16T04:34:24.366Z,1017.86
2016-12-16T04:35:24.346Z,1017.9
2016-12-16T04:36:24.324Z,1017.89
2016-12-16T04:37:24.302Z,1017.89
2016-12-16T04:38:24.277Z,1017.92
2016-12-16T04:39:24.260Z,1017.92
2016-12-16T04:40:24.234Z,1017.88
2016-12-16T04:41:24.212Z,1017.92
2016-12-16T04:42:24.188Z,1017.89
2016-12-16T04:43:24.168Z,1017.87
2016-12-16T04:44:24.144Z,1017.87
2016-12-16T04:45:24.122Z,1017.87
2016-12-16T04:46:24.100Z,1017.86
2016-12-16T04:47:24.080Z,1017.85
2016-12-16T04:48:24.056Z,1017.91
2016-12-16T04:49:24.034Z,1017.89
2016-12-16T04:50:24.011Z,1017.95
2016-12-16T04:51:23.990Z,1017.91
2016-12-16T04:52:23.970Z,1017.93
2016-12-16T04:53:23.945Z,1017.93
2016-12-16T04:54:23.923Z,1017.97
2016-12-16T04:55:23.901Z,1018
2016-12-16T04:56:23.883Z,1018
2016-12-16T04:57:23.859Z,1018
2016-12-16T04:58:23.833Z,1018.02
2016-12-16T04:59:23.815Z,1018.05
2016-12-16T05:00:23.791Z,1018.03
2016-12-16T05:01:23.768Z,1018.05
2016-12-16T05:02:23.746Z,1018.04
2016-12-16T05:03:23.726Z,1018.02
2016-12-16T05:04:23.700Z,1018.03
2016-12-16T05:05:23.681Z,1018.03
2016-12-16T05:06:23.657Z,1018.02
2016-12-16T05:07:23.633Z,1018.04
2016-12-16T05:08:23.611Z,1018.07
2016-12-16T05:09:23.591Z,1018.03
2016-12-16T05:10:23.568Z,1018.07
2016-12-16T05:11:23.547Z,1018.08
2016-12-16T05:12:23.522Z,1018.02
2016-12-16T05:13:23.501Z,1018.04
2016-12-16T05:14:23.478Z,1018.02
2016-12-16T05:15:23.457Z,1018.03
2016-12-16T05:16:23.434Z,1018.06
2016-12-16T05:17:23.411Z,1018.06
2016-12-16T05:18:23.388Z,1018.09
2016-12-16T05:19:23.367Z,1018.04
2016-12-16T05:20:23.362Z,1018.06
2016-12-16T05:21:23.326Z,1018.06
2016-12-16T05:22:23.301Z,1018.07
2016-12-16T05:23:23.277Z,1018.07
2016-12-16T05:24:23.256Z,1018.09
2016-12-16T05:25:23.237Z,1018.08
2016-12-16T05:26:23.211Z,1018.07
2016-12-16T05:27:23.189Z,1018.08
2016-12-16T05:28:23.165Z,1018.12
2016-12-16T05:29:23.146Z,1018.1
2016-12-16T05:30:23.122Z,1018.12
2016-12-16T05:31:23.098Z,1018.07
2016-12-16T05:32:23.079Z,1018.09
2016-12-16T05:33:23.054Z,1018.06
2016-12-16T05:34:23.035Z,1018.1
2016-12-16T05:35:23.009Z,1018.09
2016-12-16T05:36:22.989Z,1018.09
2016-12-16T05:37:22.965Z,1018.1
2016-12-16T05:38:22.942Z,1018.1
2016-12-16T05:39:22.921Z,1018.13
2016-12-16T05:40:22.896Z,1018.09
2016-12-16T05:41:22.876Z,1018.14
2016-12-16T05:42:22.854Z,1018.17
2016-12-16T05:43:22.831Z,1018.17
2016-12-16T05:44:22.809Z,1018.19
2016-12-16T05:45:22.806Z,1018.19
2016-12-16T05:46:22.766Z,1018.2
2016-12-16T05:47:22.742Z,1018.18
2016-12-16T05:48:22.722Z,1018.21
2016-12-16T05:49:22.701Z,1018.22
2016-12-16T05:50:22.676Z,1018.19
2016-12-16T05:51:22.654Z,1018.21
2016-12-16T05:52:22.629Z,1018.23
2016-12-16T05:53:22.608Z,1018.18
2016-12-16T05:54:22.585Z,1018.2
2016-12-16T05:55:22.568Z,1018.18
2016-12-16T05:56:22.541Z,1018.22
2016-12-16T05:57:22.520Z,1018.23
2016-12-16T05:58:22.496Z,1018.26
2016-12-16T05:59:22.473Z,1018.26
2016-12-16T06:00:22.453Z,1018.27
2016-12-16T06:01:22.435Z,1018.25
2016-12-16T06:02:22.406Z,1018.29
2016-12-16T06:03:22.386Z,1018.27
2016-12-16T06:04:22.363Z,1018.28
2016-12-16T06:05:22.340Z,1018.31
2016-12-16T06:06:22.318Z,1018.34
2016-12-16T06:07:22.296Z,1018.36
2016-12-16T06:08:22.276Z,1018.4
2016-12-16T06:09:22.260Z,1018.43
2016-12-16T06:10:22.237Z,1018.4
2016-12-16T06:11:22.208Z,1018.43
2016-12-16T06:12:22.188Z,1018.46
2016-12-16T06:13:22.162Z,1018.49
2016-12-16T06:14:22.138Z,1018.47
2016-12-16T06:15:22.117Z,1018.48
2016-12-16T06:16:22.094Z,1018.49
2016-12-16T06:17:22.072Z,1018.46
2016-12-16T06:18:22.050Z,1018.45
2016-12-16T06:19:22.027Z,1018.47
2016-12-16T06:20:22.009Z,1018.49
2016-12-16T06:21:21.983Z,1018.56
2016-12-16T06:22:21.965Z,1018.51
2016-12-16T06:23:21.940Z,1018.52
2016-12-16T06:24:21.915Z,1018.55
2016-12-16T06:25:21.895Z,1018.53
2016-12-16T06:26:21.870Z,1018.55
2016-12-16T06:27:21.848Z,1018.56
2016-12-16T06:28:21.825Z,1018.52
2016-12-16T06:29:21.805Z,1018.56
2016-12-16T06:30:21.782Z,1018.54
2016-12-16T06:31:21.759Z,1018.58
2016-12-16T06:32:21.737Z,1018.57
2016-12-16T06:33:21.719Z,1018.57
2016-12-16T06:34:21.695Z,1018.59
2016-12-16T06:35:21.674Z,1018.6
2016-12-16T06:36:21.649Z,1018.68
2016-12-16T06:37:21.626Z,1018.64
2016-12-16T06:38:21.605Z,1018.65
2016-12-16T06:39:21.582Z,1018.61
2016-12-16T06:40:21.560Z,1018.66
2016-12-16T06:41:21.538Z,1018.68
2016-12-16T06:42:21.515Z,1018.66
2016-12-16T06:43:21.493Z,1018.68
2016-12-16T06:44:21.470Z,1018.7
2016-12-16T06:45:21.450Z,1018.69
2016-12-16T06:46:21.426Z,1018.73
2016-12-16T06:47:21.442Z,1018.74
2016-12-16T06:48:21.386Z,1018.7
2016-12-16T06:49:21.360Z,1018.74
2016-12-16T06:50:21.337Z,1018.75
2016-12-16T06:51:21.316Z,1018.78
2016-12-16T06:52:21.291Z,1018.73
2016-12-16T06:53:21.270Z,1018.77
2016-12-16T06:54:21.247Z,1018.75
2016-12-16T06:55:21.224Z,1018.76
2016-12-16T06:56:21.208Z,1018.77
2016-12-16T06:57:21.181Z,1018.78
2016-12-16T06:58:21.162Z,1018.81
2016-12-16T06:59:21.139Z,1018.84
2016-12-16T07:00:21.115Z,1018.83
2016-12-16T07:01:21.093Z,1018.8
2016-12-16T07:02:21.070Z,1018.84
2016-12-16T07:03:21.049Z,1018.85
2016-12-16T07:04:21.025Z,1018.88
2016-12-16T07:05:21.003Z,1018.88
2016-12-16T07:06:20.980Z,1018.89
2016-12-16T07:07:20.958Z,1018.87
2016-12-16T07:08:20.935Z,1018.88
2016-12-16T07:09:20.915Z,1018.91
2016-12-16T07:10:20.892Z,1018.94
2016-12-16T07:11:20.870Z,1018.91
2016-12-16T07:12:20.845Z,1018.97
2016-12-16T07:13:20.823Z,1018.94
2016-12-16T07:14:20.801Z,1018.93
2016-12-16T07:15:20.780Z,1018.97
2016-12-16T07:16:20.758Z,1018.93
2016-12-16T07:17:20.735Z,1018.95
2016-12-16T07:18:20.713Z,1018.94
2016-12-16T07:19:20.690Z,1018.93
2016-12-16T07:20:20.668Z,1018.94
2016-12-16T07:21:20.646Z,1018.96
2016-12-16T07:22:20.625Z,1018.94
2016-12-16T07:23:20.602Z,1018.95
2016-12-16T07:24:20.581Z,1018.96
2016-12-16T07:25:20.570Z,1019
2016-12-16T07:26:20.538Z,1019.01
2016-12-16T07:27:20.513Z,1018.99
2016-12-16T07:28:20.490Z,1019.02
2016-12-16T07:29:20.470Z,1019.04
2016-12-16T07:30:20.447Z,1019.06
2016-12-16T07:31:20.445Z,1019.08
2016-12-16T07:32:20.403Z,1019.09
2016-12-16T07:33:20.379Z,1019.13
2016-12-16T07:34:20.359Z,1019.15
2016-12-16T07:35:20.334Z,1019.16
2016-12-16T07:36:20.315Z,1019.18
2016-12-16T07:37:20.289Z,1019.2
2016-12-16T07:38:20.268Z,1019.16
2016-12-16T07:39:20.247Z,1019.19
2016-12-16T07:40:20.227Z,1019.17
2016-12-16T07:41:20.202Z,1019.2
2016-12-16T07:42:20.180Z,1019.2
2016-12-16T07:43:20.159Z,1019.16
2016-12-16T07:44:20.134Z,1019.15
2016-12-16T07:45:20.114Z,1019.16
2016-12-16T07:46:20.095Z,1019.18
2016-12-16T07:47:20.067Z,1019.17
2016-12-16T07:48:20.050Z,1019.21
2016-12-16T07:49:20.023Z,1019.2
2016-12-16T07:50:20.001Z,1019.27
2016-12-16T07:51:19.981Z,1019.26
2016-12-16T07:52:19.960Z,1019.23
2016-12-16T07:53:19.936Z,1019.24
2016-12-16T07:54:19.913Z,1019.22
2016-12-16T07:55:19.890Z,1019.26
2016-12-16T07:56:19.870Z,1019.26
2016-12-16T07:57:19.845Z,1019.23
2016-12-16T07:58:19.824Z,1019.28
2016-12-16T07:59:19.850Z,1019.25
2016-12-16T08:00:19.780Z,1019.27
2016-12-16T08:01:19.757Z,1019.22
2016-12-16T08:02:19.736Z,1019.28
2016-12-16T08:03:19.713Z,1019.29
2016-12-16T08:04:19.693Z,1019.34
2016-12-16T08:05:19.668Z,1019.37
2016-12-16T08:06:19.696Z,1019.35
2016-12-16T08:07:19.627Z,1019.41
2016-12-16T08:08:19.603Z,1019.4
2016-12-16T08:09:19.582Z,1019.45
2016-12-16T08:10:19.557Z,1019.44
2016-12-16T08:11:19.687Z,1019.39
2016-12-16T08:12:19.516Z,1019.39
2016-12-16T08:13:19.495Z,1019.44
2016-12-16T08:14:19.473Z,1019.41
2016-12-16T08:15:19.556Z,1019.43
2016-12-16T08:16:19.429Z,1019.46
2016-12-16T08:17:19.454Z,1019.38
2016-12-16T08:18:19.384Z,1019.46
2016-12-16T08:19:19.360Z,1019.49
2016-12-16T08:20:19.541Z,1019.47
2016-12-16T08:21:19.317Z,1019.5
2016-12-16T08:22:19.296Z,1019.52
2016-12-16T08:23:19.273Z,1019.51
2016-12-16T08:24:19.252Z,1019.53
2016-12-16T08:25:19.229Z,1019.55
2016-12-16T08:26:19.229Z,1019.57
2016-12-16T08:27:19.186Z,1019.58
2016-12-16T08:28:19.165Z,1019.6
2016-12-16T08:29:19.144Z,1019.63
2016-12-16T08:30:19.121Z,1019.63
2016-12-16T08:31:19.099Z,1019.61
2016-12-16T08:32:19.077Z,1019.64
2016-12-16T08:33:19.055Z,1019.67
2016-12-16T08:34:19.032Z,1019.72
2016-12-16T08:35:19.012Z,1019.71
2016-12-16T08:36:18.990Z,1019.72
2016-12-16T08:37:18.968Z,1019.7
2016-12-16T08:38:18.950Z,1019.7
2016-12-16T08:39:18.925Z,1019.71
2016-12-16T08:40:18.903Z,1019.74
2016-12-16T08:41:18.884Z,1019.73
2016-12-16T08:42:18.862Z,1019.73
2016-12-16T08:43:18.837Z,1019.71
2016-12-16T08:44:18.817Z,1019.73
2016-12-16T08:45:18.796Z,1019.73
2016-12-16T08:46:18.775Z,1019.72
2016-12-16T08:47:18.751Z,1019.71
2016-12-16T08:48:18.732Z,1019.71
2016-12-16T08:49:18.709Z,1019.72
2016-12-16T08:50:18.688Z,1019.74
2016-12-16T08:51:18.667Z,1019.74
2016-12-16T08:52:18.646Z,1019.79
2016-12-16T08:53:18.623Z,1019.77
2016-12-16T08:54:18.603Z,1019.78
2016-12-16T08:55:18.580Z,1019.87
2016-12-16T08:56:18.560Z,1019.84
2016-12-16T08:57:18.539Z,1019.84
2016-12-16T08:58:18.519Z,1019.89
2016-12-16T08:59:18.497Z,1019.9
2016-12-16T09:00:18.477Z,1019.88
2016-12-16T09:01:18.455Z,1019.92
2016-12-16T09:02:18.433Z,1019.96
2016-12-16T09:03:18.416Z,1019.91
2016-12-16T09:04:18.392Z,1019.92
2016-12-16T09:05:18.369Z,1019.96
2016-12-16T09:06:18.349Z,1019.94
2016-12-16T09:07:18.329Z,1019.95
2016-12-16T09:08:18.307Z,1019.97
2016-12-16T09:09:18.286Z,1019.96
2016-12-16T09:10:18.265Z,1020.02
2016-12-16T09:11:18.246Z,1019.94
2016-12-16T09:12:18.224Z,1019.97
2016-12-16T09:13:18.203Z,1019.99
2016-12-16T09:14:18.183Z,1020.01
2016-12-16T09:15:18.161Z,1020.02
2016-12-16T09:16:18.141Z,1020.01
2016-12-16T09:17:18.118Z,1020.01
2016-12-16T09:18:18.098Z,1020.05
2016-12-16T09:19:18.081Z,1020.02
2016-12-16T09:20:18.058Z,1020.01
2016-12-16T09:21:18.037Z,1020.02
2016-12-16T09:22:18.014Z,1019.97
2016-12-16T09:23:17.994Z,1020
2016-12-16T09:24:17.975Z,1019.98
2016-12-16T09:25:17.956Z,1020
2016-12-16T09:26:17.935Z,1019.99
2016-12-16T09:27:17.913Z,1020
2016-12-16T09:28:17.893Z,1020.05
2016-12-16T09:29:17.873Z,1020.07
2016-12-16T09:30:17.852Z,1020.06
2016-12-16T09:31:17.830Z,1020.07
2016-12-16T09:32:17.810Z,1020.06
2016-12-16T09:33:17.790Z,1020.03
2016-12-16T09:34:17.771Z,1020.08
2016-12-16T09:35:17.755Z,1020.09
2016-12-16T09:36:17.729Z,1020.1
2016-12-16T09:37:17.719Z,1020.1
2016-12-16T09:38:17.690Z,1020.12
2016-12-16T09:39:17.671Z,1020.13
2016-12-16T09:40:17.650Z,1020.12
2016-12-16T09:41:17.629Z,1020.09
2016-12-16T09:42:17.622Z,1020.1
2016-12-16T09:43:17.588Z,1020.1
2016-12-16T09:44:17.569Z,1020.07
2016-12-16T09:45:17.553Z,1020.08
2016-12-16T09:46:17.527Z,1020.09
2016-12-16T09:47:17.509Z,1020.06
2016-12-16T09:48:17.489Z,1020.08
2016-12-16T09:49:17.468Z,1020.09
2016-12-16T09:50:17.450Z,1020.08
2016-12-16T09:51:17.429Z,1020.11
2016-12-16T09:52:17.409Z,1020.1
2016-12-16T09:53:17.391Z,1020.09
2016-12-16T09:54:17.373Z,1020.1
2016-12-16T09:55:17.351Z,1020.11
2016-12-16T09:56:17.332Z,1020.12
2016-12-16T09:57:17.314Z,1020.13
2016-12-16T09:58:17.295Z,1020.11
2016-12-16T09:59:17.275Z,1020.11
2016-12-16T10:00:17.257Z,1020.08
2016-12-16T10:01:17.238Z,1020.12
2016-12-16T10:02:17.220Z,1020.15
2016-12-16T10:03:17.201Z,1020.17
2016-12-16T10:04:17.185Z,1020.14
2016-12-16T10:05:17.168Z,1020.13
2016-12-16T10:06:17.148Z,1020.12
2016-12-16T10:07:17.130Z,1020.14
2016-12-16T10:08:17.114Z,1020.09
2016-12-16T10:09:17.097Z,1020.09
2016-12-16T10:10:17.081Z,1020.07
2016-12-16T10:11:17.063Z,1020.05
2016-12-16T10:12:17.047Z,1020.04
2016-12-16T10:13:17.044Z,1020.08
2016-12-16T10:14:17.013Z,1020.07
2016-12-16T10:15:16.998Z,1020.01
2016-12-16T10:16:16.984Z,1020.03
2016-12-16T10:17:16.968Z,1020.03
2016-12-16T10:18:16.958Z,1020.03
2016-12-16T10:19:16.939Z,1020.02
2016-12-16T10:20:17.129Z,1020.05
2016-12-16T10:21:16.908Z,1020.07
2016-12-16T10:22:16.892Z,1020.05
2016-12-16T10:23:16.878Z,1020.06
2016-12-16T10:24:16.873Z,1020.07
2016-12-16T10:25:16.848Z,1020.05
2016-12-16T10:26:16.834Z,1020.08
2016-12-16T10:27:16.818Z,1020.08
2016-12-16T10:28:16.806Z,1020.1
2016-12-16T10:29:16.791Z,1020.12
2016-12-16T10:30:16.775Z,1020.14
2016-12-16T10:31:16.762Z,1020.13
2016-12-16T10:32:16.749Z,1020.11
2016-12-16T10:33:16.926Z,1020.16
2016-12-16T10:34:16.721Z,1020.17
2016-12-16T10:35:16.706Z,1020.19
2016-12-16T10:36:16.692Z,1020.22
2016-12-16T10:37:16.679Z,1020.19
2016-12-16T10:38:16.666Z,1020.18
2016-12-16T10:39:16.650Z,1020.22
2016-12-16T10:40:16.637Z,1020.2
2016-12-16T10:41:16.622Z,1020.18
2016-12-16T10:42:16.609Z,1020.2
2016-12-16T10:43:16.593Z,1020.19
2016-12-16T10:44:16.582Z,1020.22
2016-12-16T10:45:16.568Z,1020.17
2016-12-16T10:46:16.556Z,1020.18
2016-12-16T10:47:16.541Z,1020.21
2016-12-16T10:48:16.526Z,1020.2
2016-12-16T10:49:16.512Z,1020.19
2016-12-16T10:50:16.510Z,1020.19
2016-12-16T10:51:16.485Z,1020.13
2016-12-16T10:52:16.483Z,1020.1
2016-12-16T10:53:16.460Z,1020.09
2016-12-16T10:54:16.444Z,1020.11
2016-12-16T10:55:16.431Z,1020.15
2016-12-16T10:56:16.418Z,1020.11
2016-12-16T10:57:16.404Z,1020.13
2016-12-16T10:58:16.390Z,1020.17
2016-12-16T10:59:16.380Z,1020.2
2016-12-16T11:00:16.434Z,1020.16
2016-12-16T11:01:16.353Z,1020.15
2016-12-16T11:02:16.389Z,1020.16
2016-12-16T11:03:16.325Z,1020.14
2016-12-16T11:04:16.309Z,1020.15
2016-12-16T11:05:16.296Z,1020.15
2016-12-16T11:06:16.285Z,1020.13
2016-12-16T11:07:16.270Z,1020.14
2016-12-16T11:08:16.257Z,1020.09
2016-12-16T11:09:16.244Z,1020.15
2016-12-16T11:10:16.231Z,1020.15
2016-12-16T11:11:16.217Z,1020.12
2016-12-16T11:12:16.204Z,1020.12
2016-12-16T11:13:16.193Z,1020.15
2016-12-16T11:14:16.179Z,1020.16
2016-12-16T11:15:16.167Z,1020.15
2016-12-16T11:16:16.154Z,1020.12
2016-12-16T11:17:16.141Z,1020.11
2016-12-16T11:18:16.127Z,1020.11
2016-12-16T11:19:16.115Z,1020.09
2016-12-16T11:20:16.103Z,1020.06
2016-12-16T11:21:16.088Z,1020.04
2016-12-16T11:22:16.076Z,1020.04
2016-12-16T11:23:16.064Z,1020.05
2016-12-16T11:24:16.053Z,1020.04
2016-12-16T11:25:16.037Z,1020.06
2016-12-16T11:26:16.025Z,1020.05
2016-12-16T11:27:16.012Z,1020.07
2016-12-16T11:28:15.998Z,1020.05
2016-12-16T11:29:15.985Z,1020.05
2016-12-16T11:30:15.971Z,1019.97
2016-12-16T11:31:15.958Z,1020
2016-12-16T11:32:15.944Z,1019.99
2016-12-16T11:33:15.934Z,1020.01
2016-12-16T11:34:15.918Z,1020.04
2016-12-16T11:35:15.906Z,1019.98
2016-12-16T11:36:15.892Z,1019.99
2016-12-16T11:37:15.881Z,1020.04
2016-12-16T11:38:15.863Z,1020.03
2016-12-16T11:39:15.850Z,1020.06
2016-12-16T11:40:15.838Z,1020.04
2016-12-16T11:41:15.873Z,1020
2016-12-16T11:42:15.806Z,1020
2016-12-16T11:43:15.791Z,1019.98
2016-12-16T11:44:15.778Z,1019.99
2016-12-16T11:45:15.764Z,1020.02
2016-12-16T11:46:15.747Z,1020.02
2016-12-16T11:47:15.734Z,1020.08
2016-12-16T11:48:15.723Z,1020.07
2016-12-16T11:49:15.704Z,1020.05
2016-12-16T11:50:15.690Z,1020.06
2016-12-16T11:51:15.675Z,1020.05
2016-12-16T11:52:15.661Z,1020.06
2016-12-16T11:53:15.646Z,1020.08
2016-12-16T11:54:15.632Z,1020.14
2016-12-16T11:55:15.617Z,1020.14
2016-12-16T11:56:15.603Z,1020.15
2016-12-16T11:57:15.589Z,1020.15
2016-12-16T11:58:15.574Z,1020.13
2016-12-16T11:59:15.557Z,1020.16
2016-12-16T12:00:15.541Z,1020.18
2016-12-16T12:01:15.529Z,1020.13
2016-12-16T12:02:15.514Z,1020.19
2016-12-16T12:03:15.499Z,1020.17
2016-12-16T12:04:15.496Z,1020.21
2016-12-16T12:05:15.466Z,1020.21
2016-12-16T12:06:15.452Z,1020.27
2016-12-16T12:07:15.438Z,1020.26
2016-12-16T12:08:15.421Z,1020.27